Home / US / Illinois / Meigs

Meigs, IL Weather

Current Report for Fri Oct 20 2017

As of 4:53 AM CDT FRI OCT 20 2017

55°F 13°cMeigs weather conditions : Fair

Fair

Barometer: 30.16 inHg. rising

Humidity: 77%

Wind: S. 5mph

Wind Gust: 7mph

Wind Chill: 54°F

Dew Point: 48°F steady

Visibility: 10.00mi.

Sunrise: 7:07 AM

Sunset: 6:01 PM

Moon Phase: Waxing Crescent Moon

Daily and Hourly Summary

Loading Meigs IL Summary and Hourly data for today, tonight and tomorrow...
Forecast for Meigs, IL:
(Forecast based on TAF for )
1200 PM CDT FRI OCT 20 2017
  
AFTERNOON EVENING OVERNIGHT
Partly Cloudy Partly Cloudy Partly Cloudy
Partly
Cloudy
Partly
Cloudy
Partly
Cloudy
Original Encoded TAF:
Dated: 1200 PM CDT FRI OCT 20 2017
2017/10/20 09:03
TAF 
      AMD KMDW 200900Z 2009/2106 19006KT P6SM FEW250 
     FM201700 19011G17KT P6SM FEW250 
     FM210000 18008KT P6SM SCT250

Temperatures Today (View More Charts)

Meigs, IL updates by locals

Write your own report, forecast, or traffic update:

Please note by clicking on "Post" you acknowledge that you have read the Terms of Service and the report and/or forecast you are posting is in compliance with such terms. Be respectful. An inappropriate post will be removed by a moderator. If you are not finding the information you want, please be sure to note the navigation tabs just above the breadcrumbs, which are links to other data relating to this city.